createdAt,value
2022-09-01T00:00:06.217Z,3.35
2022-09-01T00:02:34.843Z,3.85
2022-09-01T00:05:07.187Z,3.22
2022-09-01T00:07:35.968Z,3.47
2022-09-01T00:10:07.567Z,4.10
2022-09-01T00:12:36.996Z,3.72
2022-09-01T00:15:09.032Z,3.47
2022-09-01T00:17:37.987Z,3.72
2022-09-01T00:20:06.896Z,3.72
2022-09-01T00:22:35.154Z,3.55
2022-09-01T00:25:04.035Z,3.40
2022-09-01T00:27:32.559Z,4.03
2022-09-01T00:30:01.739Z,4.18
2022-09-01T00:32:29.984Z,3.35
2022-09-01T00:34:58.177Z,4.20
2022-09-01T00:37:26.416Z,4.75
2022-09-01T00:39:57.339Z,4.68
2022-09-01T00:42:25.562Z,5.30
2022-09-01T00:44:53.930Z,5.68
2022-09-01T00:47:25.266Z,4.68
2022-09-01T00:49:54.314Z,4.40
2022-09-01T00:52:44.827Z,3.53
2022-09-01T00:55:22.682Z,3.55
2022-09-01T00:57:51.471Z,3.70
2022-09-01T01:00:25.538Z,3.60
2022-09-01T01:02:56.194Z,3.40
2022-09-01T01:05:40.550Z,3.78
2022-09-01T01:08:12.110Z,3.33
2022-09-01T01:10:42.944Z,2.95
2022-09-01T01:13:16.103Z,3.30
2022-09-01T01:15:44.892Z,3.40
2022-09-01T01:18:14.708Z,3.20
2022-09-01T01:21:06.337Z,3.00
2022-09-01T01:23:39.631Z,3.03
2022-09-01T01:28:44.290Z,2.88
2022-09-01T01:31:18.509Z,3.10
2022-09-01T01:33:53.048Z,3.47
2022-09-01T01:36:32.662Z,4.85
2022-09-01T01:39:11.880Z,3.15
2022-09-01T01:41:45.274Z,3.00
2022-09-01T01:44:19.172Z,2.90
2022-09-01T01:46:53.136Z,3.75
2022-09-01T01:49:24.499Z,3.75
2022-09-01T01:51:56.239Z,2.58
2022-09-01T01:54:32.216Z,3.00
2022-09-01T01:57:04.425Z,3.45
2022-09-01T01:59:33.849Z,3.40
2022-09-01T02:02:03.759Z,3.00
2022-09-01T02:04:34.187Z,3.33
2022-09-01T02:07:13.391Z,3.42
2022-09-01T02:09:48.132Z,3.00
2022-09-01T02:12:19.733Z,3.00
2022-09-01T02:14:48.622Z,3.20
2022-09-01T02:17:20.391Z,3.45
2022-09-01T02:19:49.537Z,3.05
2022-09-01T02:22:19.828Z,2.80
2022-09-01T02:24:49.222Z,3.28
2022-09-01T02:27:25.869Z,3.17
2022-09-01T02:29:58.783Z,3.75
2022-09-01T02:32:27.323Z,3.70
2022-09-01T02:35:01.382Z,3.70
2022-09-01T02:37:29.805Z,3.85
2022-09-01T02:39:58.136Z,3.90
2022-09-01T02:42:29.652Z,4.10
2022-09-01T02:45:02.656Z,3.75
2022-09-01T02:47:31.336Z,3.28
2022-09-01T02:50:01.951Z,4.07
2022-09-01T02:52:39.383Z,4.60
2022-09-01T02:55:09.644Z,3.90
2022-09-01T02:57:38.365Z,4.20
2022-09-01T03:00:20.810Z,4.07
2022-09-01T03:02:52.950Z,4.00
2022-09-01T03:05:25.409Z,4.05
2022-09-01T03:07:57.967Z,4.15
2022-09-01T03:10:35.467Z,3.40
2022-09-01T03:13:09.059Z,3.50
2022-09-01T03:15:38.631Z,3.65
2022-09-01T03:18:08.467Z,3.13
2022-09-01T03:20:43.436Z,3.08
2022-09-01T03:23:15.607Z,3.78
2022-09-01T03:25:49.322Z,3.35
2022-09-01T03:28:17.735Z,3.80
2022-09-01T03:30:49.710Z,3.33
2022-09-01T03:33:20.208Z,3.80
2022-09-01T03:35:49.759Z,3.53
2022-09-01T03:38:24.377Z,4.22
2022-09-01T03:41:02.196Z,4.05
2022-09-01T03:43:36.152Z,3.17
2022-09-01T03:46:05.703Z,3.20
2022-09-01T03:48:34.468Z,3.33
2022-09-01T03:51:03.257Z,3.40
2022-09-01T03:53:35.096Z,3.13
2022-09-01T03:56:04.220Z,3.03
2022-09-01T03:58:34.072Z,3.78
2022-09-01T04:01:03.089Z,3.63
2022-09-01T04:03:34.642Z,4.68
2022-09-01T04:06:04.756Z,3.17
2022-09-01T04:08:35.080Z,3.40
2022-09-01T04:11:10.807Z,3.50
2022-09-01T04:13:41.414Z,3.67
2022-09-01T04:16:38.906Z,4.10
2022-09-01T04:19:16.100Z,4.20
2022-09-01T04:21:45.920Z,4.43
2022-09-01T04:24:15.406Z,3.67
2022-09-01T04:26:47.069Z,4.15
2022-09-01T04:29:19.479Z,4.22
2022-09-01T04:31:52.069Z,4.40
2022-09-01T04:34:22.641Z,4.55
2022-09-01T04:36:56.862Z,3.63
2022-09-01T04:39:25.439Z,3.78
2022-09-01T04:41:55.452Z,4.10
2022-09-01T04:44:27.990Z,4.30
2022-09-01T04:46:57.207Z,4.22
2022-09-01T04:49:26.410Z,3.30
2022-09-01T04:51:54.906Z,4.00
2022-09-01T04:54:24.933Z,3.30
2022-09-01T04:56:55.029Z,3.45
2022-09-01T04:59:27.139Z,3.40
2022-09-01T05:02:00.695Z,3.17
2022-09-01T05:04:33.946Z,3.20
2022-09-01T05:07:05.546Z,3.33
2022-09-01T05:09:39.458Z,3.50
2022-09-01T05:12:27.638Z,3.05
2022-09-01T05:14:56.137Z,3.42
2022-09-01T05:17:29.131Z,3.40
2022-09-01T05:19:58.089Z,3.25
2022-09-01T05:22:27.063Z,3.15
2022-09-01T05:25:13.174Z,3.05
2022-09-01T05:27:52.782Z,3.17
2022-09-01T05:30:24.062Z,3.13
2022-09-01T05:32:55.116Z,2.80
2022-09-01T05:35:32.539Z,3.08
2022-09-01T05:38:02.545Z,2.60
2022-09-01T05:40:30.921Z,2.88
2022-09-01T05:42:59.396Z,3.10
2022-09-01T05:45:28.029Z,3.05
2022-09-01T05:47:57.133Z,4.32
2022-09-01T05:50:26.711Z,3.47
2022-09-01T05:52:57.681Z,3.00
2022-09-01T05:55:27.711Z,3.42
2022-09-01T05:57:57.248Z,3.28
2022-09-01T06:00:25.538Z,2.72
2022-09-01T06:02:54.832Z,2.70
2022-09-01T06:05:23.794Z,3.47
2022-09-01T06:07:55.350Z,4.18
2022-09-01T06:10:23.693Z,4.20
2022-09-01T06:12:54.486Z,4.20
2022-09-01T06:15:24.754Z,3.50
2022-09-01T06:17:54.670Z,3.72
2022-09-01T06:20:23.198Z,3.83
2022-09-01T06:22:53.194Z,4.00
2022-09-01T06:25:22.444Z,3.22
2022-09-01T06:27:52.471Z,3.47
2022-09-01T06:30:24.393Z,3.53
2022-09-01T06:33:10.875Z,3.50
2022-09-01T06:35:44.877Z,3.50
2022-09-01T06:38:15.405Z,3.83
2022-09-01T06:40:46.489Z,3.78
2022-09-01T06:43:20.575Z,4.03
2022-09-01T06:45:55.251Z,4.25
2022-09-01T06:48:30.734Z,3.00
2022-09-01T06:51:19.165Z,3.90
2022-09-01T06:53:56.770Z,3.65
2022-09-01T06:56:33.865Z,3.47
2022-09-01T06:59:10.146Z,3.72
2022-09-01T07:01:40.050Z,3.95
2022-09-01T07:13:10.151Z,4.38
2022-09-01T07:18:34.028Z,3.75
2022-09-01T07:21:36.621Z,4.28
2022-09-01T07:24:13.229Z,3.70
2022-09-01T07:26:55.427Z,4.80
2022-09-01T07:29:25.744Z,3.40
2022-09-01T07:34:47.840Z,3.17
2022-09-01T07:42:58.034Z,3.80
2022-09-01T07:43:32.659Z,2.30
2022-09-01T07:46:37.573Z,2.47
2022-09-01T07:52:03.835Z,1.65
2022-09-01T07:54:34.821Z,1.73
2022-09-01T07:57:04.432Z,1.58
2022-09-01T07:59:36.115Z,1.50
2022-09-01T08:02:12.706Z,1.40
2022-09-01T08:04:42.298Z,1.20
2022-09-01T08:07:15.493Z,1.30
2022-09-01T08:09:44.810Z,1.33
2022-09-01T08:12:14.923Z,1.73
2022-09-01T08:15:12.721Z,1.00
2022-09-01T08:17:58.049Z,1.33
2022-09-01T08:20:30.519Z,0.90
2022-09-01T08:23:11.158Z,1.33
2022-09-01T08:25:42.455Z,1.10
2022-09-01T08:28:14.315Z,1.08
2022-09-01T08:30:52.323Z,1.15
2022-09-01T08:33:22.863Z,0.98
2022-09-01T08:35:51.205Z,1.08
2022-09-01T08:38:20.679Z,1.20
2022-09-01T08:40:57.023Z,1.15
2022-09-01T08:43:56.168Z,1.10
2022-09-01T08:46:40.153Z,1.30
2022-09-01T08:49:25.837Z,0.88
2022-09-01T08:52:26.115Z,1.00
2022-09-01T08:55:25.877Z,1.00
2022-09-01T08:57:59.896Z,0.88
2022-09-01T09:00:36.989Z,1.00
2022-09-01T09:03:27.149Z,1.30
2022-09-01T09:06:25.495Z,0.90
2022-09-01T09:09:08.715Z,0.90
2022-09-01T09:12:08.759Z,1.05
2022-09-01T09:15:04.013Z,1.00
2022-09-01T09:17:41.885Z,0.90
2022-09-01T09:20:11.061Z,1.00
2022-09-01T09:22:48.783Z,0.80
2022-09-01T09:25:19.145Z,1.13
2022-09-01T09:27:49.387Z,0.88
2022-09-01T09:30:30.024Z,0.90
2022-09-01T09:33:46.583Z,1.20
2022-09-01T09:36:37.588Z,0.95
2022-09-01T09:39:13.137Z,0.80
2022-09-01T09:41:43.107Z,0.70
2022-09-01T09:44:29.961Z,1.00
2022-09-01T09:46:58.446Z,0.80
2022-09-01T09:49:35.997Z,0.90
2022-09-01T09:52:09.028Z,0.80
2022-09-01T09:54:59.087Z,1.00
2022-09-01T09:57:32.250Z,1.10
2022-09-01T10:00:16.565Z,0.90
2022-09-01T10:02:46.435Z,0.95
2022-09-01T10:05:48.750Z,0.80
2022-09-01T10:08:45.302Z,1.00
2022-09-01T10:11:49.001Z,0.90
2022-09-01T10:14:35.481Z,0.90
2022-09-01T10:17:17.305Z,1.05
2022-09-01T10:20:25.368Z,1.20
2022-09-01T10:22:54.472Z,1.00
2022-09-01T10:25:35.429Z,0.82
2022-09-01T10:28:20.889Z,1.20
2022-09-01T10:30:50.840Z,0.98
2022-09-01T10:33:22.115Z,1.17
2022-09-01T10:35:53.518Z,1.02
2022-09-01T10:38:25.524Z,1.10
2022-09-01T10:41:14.682Z,1.08
2022-09-01T10:43:47.327Z,1.17
2022-09-01T10:46:25.883Z,1.30
2022-09-01T10:49:03.241Z,1.25
2022-09-01T10:51:50.174Z,1.20
2022-09-01T10:54:50.869Z,1.23
2022-09-01T10:57:31.945Z,1.00
2022-09-01T11:00:39.920Z,1.00
2022-09-01T11:03:31.830Z,0.90
2022-09-01T11:06:13.844Z,1.15
2022-09-01T11:08:56.555Z,0.98
2022-09-01T11:11:45.324Z,1.02
2022-09-01T11:14:26.534Z,1.00
2022-09-01T11:17:18.771Z,1.23
2022-09-01T11:20:00.857Z,0.85
2022-09-01T11:22:41.855Z,0.82
2022-09-01T11:25:48.537Z,0.80
2022-09-01T11:28:40.066Z,1.10
2022-09-01T11:31:14.402Z,0.98
2022-09-01T11:34:12.097Z,1.40
2022-09-01T11:36:47.280Z,1.00
2022-09-01T11:39:20.866Z,0.70
2022-09-01T11:42:04.422Z,0.70
2022-09-01T11:44:58.460Z,0.70
2022-09-01T11:47:45.742Z,0.85
2022-09-01T11:50:25.927Z,0.70
2022-09-01T11:53:15.855Z,0.60
2022-09-01T11:55:48.996Z,0.80
2022-09-01T12:01:00.536Z,0.82
2022-09-01T12:03:30.499Z,1.08
2022-09-01T12:06:06.004Z,0.70
2022-09-01T12:08:38.607Z,0.85
2022-09-01T12:11:27.435Z,1.08
2022-09-01T12:14:00.269Z,0.93
2022-09-01T12:16:30.411Z,0.60
2022-09-01T12:18:59.574Z,0.70
2022-09-01T12:21:42.997Z,0.80
2022-09-01T12:24:22.709Z,0.75
2022-09-01T12:26:59.104Z,0.98
2022-09-01T12:29:31.997Z,0.90
2022-09-01T12:32:01.746Z,0.90
2022-09-01T12:34:49.116Z,0.90
2022-09-01T12:37:24.786Z,0.77
2022-09-01T12:39:58.405Z,0.68
2022-09-01T12:42:41.174Z,0.70
2022-09-01T12:45:11.039Z,0.73
2022-09-01T12:47:48.010Z,0.90
2022-09-01T12:50:16.941Z,0.80
2022-09-01T12:52:52.481Z,0.80
2022-09-01T12:55:50.268Z,1.00
2022-09-01T12:58:25.830Z,0.70
2022-09-01T13:00:59.489Z,0.70
2022-09-01T13:03:29.513Z,0.90
2022-09-01T13:06:00.322Z,0.80
2022-09-01T13:08:33.988Z,0.93
2022-09-01T13:11:11.209Z,0.90
2022-09-01T13:13:40.087Z,1.00
2022-09-01T13:16:13.027Z,0.90
2022-09-01T13:21:33.248Z,0.85
2022-09-01T13:24:05.007Z,0.90
2022-09-01T13:26:33.740Z,0.90
2022-09-01T13:29:02.008Z,1.00
2022-09-01T13:31:31.716Z,0.70
2022-09-01T13:34:22.202Z,0.88
2022-09-01T13:36:52.513Z,1.05
2022-09-01T13:39:22.867Z,0.98
2022-09-01T13:41:51.218Z,1.10
2022-09-01T13:44:19.882Z,0.85
2022-09-01T13:50:04.942Z,0.70
2022-09-01T13:52:24.701Z,0.63
2022-09-01T13:54:52.918Z,0.65
2022-09-01T13:57:21.303Z,0.98
2022-09-01T13:59:49.457Z,1.00
2022-09-01T14:02:17.656Z,1.02
2022-09-01T14:04:47.369Z,1.13
2022-09-01T14:07:16.275Z,1.13
2022-09-01T14:09:45.035Z,0.95
2022-09-01T14:12:13.723Z,0.88
2022-09-01T14:17:30.151Z,1.10
2022-09-01T14:20:02.008Z,0.82
2022-09-01T14:22:31.057Z,0.88
2022-09-01T14:25:01.303Z,0.90
2022-09-01T14:27:29.534Z,0.77
2022-09-01T14:29:57.800Z,1.05
2022-09-01T14:32:27.065Z,1.73
2022-09-01T14:34:56.504Z,1.08
2022-09-01T14:37:25.563Z,0.98
2022-09-01T14:39:55.851Z,1.00
2022-09-01T14:42:25.800Z,1.00
2022-09-01T14:44:54.203Z,1.30
2022-09-01T14:47:26.037Z,1.10
2022-09-01T14:49:54.772Z,1.45
2022-09-01T14:52:23.078Z,1.10
2022-09-01T14:54:51.703Z,1.13
2022-09-01T14:57:37.577Z,1.13
2022-09-01T15:00:12.547Z,1.23
2022-09-01T15:02:42.964Z,1.35
2022-09-01T15:05:12.771Z,1.33
2022-09-01T15:07:42.286Z,1.13
2022-09-01T15:10:16.077Z,3.60
2022-09-01T15:13:02.734Z,2.50
2022-09-01T15:15:31.521Z,1.10
2022-09-01T15:18:01.349Z,1.20
2022-09-01T15:20:48.618Z,1.10
2022-09-01T15:23:20.997Z,1.00
2022-09-01T15:25:52.831Z,1.20
2022-09-01T15:28:22.736Z,0.82
2022-09-01T15:30:54.280Z,1.30
2022-09-01T15:33:22.657Z,1.30
2022-09-01T15:35:50.847Z,1.33
2022-09-01T15:38:23.475Z,1.75
2022-09-01T15:40:58.517Z,1.80
2022-09-01T15:43:29.459Z,1.52
2022-09-01T15:46:00.525Z,1.70
2022-09-01T15:48:29.768Z,1.40
2022-09-01T15:51:23.763Z,1.42
2022-09-01T15:53:58.411Z,1.75
2022-09-01T15:56:27.435Z,1.58
2022-09-01T15:59:02.891Z,1.30
2022-09-01T16:01:35.619Z,1.73
2022-09-01T16:04:05.718Z,1.48
2022-09-01T16:06:34.721Z,1.70
2022-09-01T16:09:03.012Z,1.40
2022-09-01T16:11:31.295Z,1.45
2022-09-01T16:14:01.826Z,1.60
2022-09-01T16:16:45.074Z,2.28
2022-09-01T16:19:34.535Z,1.65
2022-09-01T16:22:20.463Z,1.75
2022-09-01T16:24:51.457Z,1.70
2022-09-01T16:27:22.671Z,1.70
2022-09-01T16:30:05.484Z,1.70
2022-09-01T16:32:34.429Z,2.05
2022-09-01T16:35:04.107Z,1.98
2022-09-01T16:37:48.484Z,1.88
2022-09-01T16:40:45.156Z,1.80
2022-09-01T16:43:41.496Z,1.98
2022-09-01T16:46:19.602Z,2.03
2022-09-01T16:49:34.257Z,1.92
2022-09-01T16:52:09.599Z,2.05
2022-09-01T16:55:13.201Z,2.38
2022-09-01T16:57:49.263Z,2.00
2022-09-01T17:00:32.835Z,2.45
2022-09-01T17:03:42.725Z,2.10
2022-09-01T17:06:35.330Z,2.28
2022-09-01T17:09:30.033Z,2.35
2022-09-01T17:12:42.106Z,2.00
2022-09-01T17:15:28.824Z,1.95
2022-09-01T17:18:06.354Z,1.88
2022-09-01T17:20:40.247Z,1.98
2022-09-01T17:23:15.537Z,2.13
2022-09-01T17:25:58.692Z,2.42
2022-09-01T17:28:38.981Z,2.08
2022-09-01T17:31:27.492Z,1.70
2022-09-01T17:33:58.745Z,2.35
2022-09-01T17:37:14.421Z,2.00
2022-09-01T17:40:15.321Z,2.53
2022-09-01T17:43:17.040Z,2.15
2022-09-01T17:45:57.624Z,1.90
2022-09-01T17:48:44.641Z,2.50
2022-09-01T17:51:43.589Z,1.98
2022-09-01T17:54:28.541Z,2.35
2022-09-01T17:56:59.791Z,2.60
2022-09-01T17:59:40.924Z,2.35
2022-09-01T18:02:11.887Z,2.13
2022-09-01T18:05:00.690Z,2.38
2022-09-01T18:08:11.480Z,2.10
2022-09-01T18:10:50.509Z,2.05
2022-09-01T18:13:52.751Z,1.75
2022-09-01T18:16:37.415Z,2.35
2022-09-01T18:19:24.517Z,2.33
2022-09-01T18:22:07.492Z,2.15
2022-09-01T18:24:57.834Z,1.83
2022-09-01T18:27:28.835Z,1.85
2022-09-01T18:30:01.298Z,2.00
2022-09-01T18:32:47.430Z,2.05
2022-09-01T18:35:44.356Z,1.85
2022-09-01T18:38:39.601Z,1.80
2022-09-01T18:41:24.454Z,2.03
2022-09-01T18:44:22.794Z,1.75
2022-09-01T18:47:24.473Z,2.03
2022-09-01T18:50:14.440Z,2.08
2022-09-01T18:53:06.040Z,1.67
2022-09-01T18:56:14.263Z,2.25
2022-09-01T18:59:19.657Z,2.10
2022-09-01T19:02:00.063Z,1.80
2022-09-01T19:04:42.491Z,2.00
2022-09-01T19:07:38.612Z,1.88
2022-09-01T19:10:38.210Z,1.90
2022-09-01T19:13:31.562Z,1.42
2022-09-01T19:16:08.964Z,2.13
2022-09-01T19:18:43.759Z,1.90
2022-09-01T19:21:22.530Z,2.17
2022-09-01T19:24:05.960Z,1.80
2022-09-01T19:26:41.964Z,1.65
2022-09-01T19:29:23.774Z,1.63
2022-09-01T19:31:59.805Z,1.75
2022-09-01T19:34:44.051Z,1.73
2022-09-01T19:37:13.515Z,2.00
2022-09-01T19:39:45.100Z,1.77
2022-09-01T19:42:35.636Z,1.83
2022-09-01T19:45:22.619Z,1.77
2022-09-01T19:48:09.425Z,1.50
2022-09-01T19:51:02.785Z,1.40
2022-09-01T19:53:46.813Z,1.77
2022-09-01T19:56:58.142Z,1.75
2022-09-01T19:59:41.695Z,1.65
2022-09-01T20:02:25.004Z,1.63
2022-09-01T20:05:11.915Z,1.88
2022-09-01T20:07:51.860Z,1.70
2022-09-01T20:10:35.973Z,2.15
2022-09-01T20:13:21.794Z,1.88
2022-09-01T20:16:02.358Z,1.67
2022-09-01T20:18:54.264Z,1.48
2022-09-01T20:21:25.492Z,1.60
2022-09-01T20:24:06.353Z,1.80
2022-09-01T20:26:56.287Z,1.58
2022-09-01T20:29:58.165Z,1.67
2022-09-01T20:32:46.067Z,1.50
2022-09-01T20:35:23.475Z,1.60
2022-09-01T20:38:06.008Z,1.65
2022-09-01T20:40:41.310Z,1.50
2022-09-01T20:43:16.099Z,1.95
2022-09-01T20:45:46.057Z,1.38
2022-09-01T20:48:17.743Z,1.40
2022-09-01T20:51:02.757Z,1.63
2022-09-01T20:54:02.575Z,1.88
2022-09-01T20:56:57.101Z,1.50
2022-09-01T20:59:36.538Z,1.95
2022-09-01T21:02:42.185Z,1.60
2022-09-01T21:05:25.234Z,1.50
2022-09-01T21:08:18.042Z,1.77
2022-09-01T21:11:12.094Z,1.90
2022-09-01T21:13:58.543Z,1.98
2022-09-01T21:16:57.269Z,1.77
2022-09-01T21:19:31.343Z,1.60
2022-09-01T21:22:18.472Z,2.20
2022-09-01T21:24:52.268Z,1.20
2022-09-01T21:27:27.505Z,1.60
2022-09-01T21:30:08.013Z,1.52
2022-09-01T21:32:36.767Z,1.38
2022-09-01T21:35:08.096Z,1.83
2022-09-01T21:37:36.348Z,1.60
2022-09-01T21:40:06.112Z,1.42
2022-09-01T21:42:38.622Z,1.73
2022-09-01T21:45:10.481Z,1.60
2022-09-01T21:47:41.043Z,1.60
2022-09-01T21:50:10.318Z,1.90
2022-09-01T21:52:38.688Z,1.30
2022-09-01T21:55:08.308Z,1.50
2022-09-01T21:57:36.739Z,1.55
2022-09-01T22:00:10.983Z,1.70
2022-09-01T22:02:44.208Z,1.75
2022-09-01T22:05:13.054Z,1.70
2022-09-01T22:07:46.691Z,2.05
2022-09-01T22:10:17.960Z,1.63
2022-09-01T22:12:48.046Z,1.90
2022-09-01T22:15:19.439Z,1.95
2022-09-01T22:17:48.574Z,1.85
2022-09-01T22:20:22.306Z,1.85
2022-09-01T22:22:51.142Z,1.80
2022-09-01T22:25:21.628Z,1.60
2022-09-01T22:27:49.876Z,1.70
2022-09-01T22:30:19.307Z,1.95
2022-09-01T22:32:48.073Z,2.03
2022-09-01T22:35:18.374Z,1.83
2022-09-01T22:37:47.139Z,1.90
2022-09-01T22:40:16.679Z,2.60
2022-09-01T22:42:45.257Z,1.58
2022-09-01T22:45:15.085Z,1.70
2022-09-01T22:47:43.884Z,2.10
2022-09-01T22:50:13.065Z,1.90
2022-09-01T22:52:41.354Z,1.80
2022-09-01T22:55:10.642Z,1.90
2022-09-01T22:57:39.073Z,1.88
2022-09-01T23:00:09.863Z,2.00
2022-09-01T23:02:38.179Z,1.92
2022-09-01T23:05:07.231Z,1.80
2022-09-01T23:07:39.628Z,1.83
2022-09-01T23:10:09.432Z,2.00
2022-09-01T23:12:37.633Z,2.13
2022-09-01T23:15:06.504Z,1.90
2022-09-01T23:17:36.785Z,2.08
2022-09-01T23:20:12.509Z,1.98
2022-09-01T23:22:44.769Z,2.15
2022-09-01T23:25:15.584Z,2.15
2022-09-01T23:27:43.908Z,1.95
2022-09-01T23:30:14.718Z,2.03
2022-09-01T23:32:43.024Z,2.50
2022-09-01T23:35:11.887Z,2.50
2022-09-01T23:37:40.069Z,2.42
2022-09-01T23:40:08.887Z,1.80
2022-09-01T23:42:37.360Z,2.47
2022-09-01T23:45:06.069Z,2.20
2022-09-01T23:47:34.319Z,2.05
2022-09-01T23:50:03.471Z,1.80
2022-09-01T23:52:31.739Z,2.30
2022-09-01T23:55:00.692Z,2.45
2022-09-01T23:57:28.916Z,3.65
2022-09-01T23:59:57.833Z,1.83
